createdAt,value
2019-03-16T00:00:23.675Z,90.23
2019-03-16T00:01:23.714Z,90.23
2019-03-16T00:02:23.722Z,89.94
2019-03-16T00:03:23.594Z,90.14
2019-03-16T00:04:23.572Z,89.94
2019-03-16T00:05:23.546Z,90.04
2019-03-16T00:06:23.521Z,89.66
2019-03-16T00:07:32.922Z,89.56
2019-03-16T00:08:23.471Z,89.56
2019-03-16T00:09:23.459Z,89.37
2019-03-16T00:10:23.422Z,89.56
2019-03-16T00:11:23.430Z,89.85
2019-03-16T00:12:23.461Z,89.56
2019-03-16T00:13:23.352Z,89.66
2019-03-16T00:14:23.337Z,90.23
2019-03-16T00:15:23.308Z,89.66
2019-03-16T00:16:23.274Z,89.75
2019-03-16T00:17:23.913Z,90.23
2019-03-16T00:18:23.224Z,89.75
2019-03-16T00:19:23.202Z,90.04
2019-03-16T00:20:23.176Z,90.23
2019-03-16T00:21:23.153Z,90.23
2019-03-16T00:22:23.139Z,90.23
2019-03-16T00:23:23.113Z,90.42
2019-03-16T00:24:23.074Z,90.42
2019-03-16T00:25:23.052Z,90.42
2019-03-16T00:26:23.027Z,90.23
2019-03-16T00:27:23.006Z,90.33
2019-03-16T00:28:22.978Z,90.23
2019-03-16T00:29:22.955Z,90.04
2019-03-16T00:30:22.925Z,90.52
2019-03-16T00:31:22.906Z,90.42
2019-03-16T00:32:22.879Z,90.70
2019-03-16T00:33:22.852Z,90.61
2019-03-16T00:34:22.863Z,90.33
2019-03-16T00:35:22.813Z,90.33
2019-03-16T00:36:22.781Z,90.33
2019-03-16T00:37:22.755Z,90.52
2019-03-16T00:38:23.606Z,90.42
2019-03-16T00:39:22.708Z,90.33
2019-03-16T00:40:22.682Z,90.33
2019-03-16T00:41:22.656Z,90.52
2019-03-16T00:42:22.639Z,90.33
2019-03-16T00:43:22.656Z,90.14
2019-03-16T00:44:22.799Z,90.99
2019-03-16T00:45:22.561Z,90.42
2019-03-16T00:46:22.717Z,90.14
2019-03-16T00:47:22.512Z,90.52
2019-03-16T00:48:22.481Z,90.14
2019-03-16T00:49:22.457Z,90.33
2019-03-16T00:50:22.575Z,90.33
2019-03-16T00:51:22.443Z,90.61
2019-03-16T00:52:22.385Z,90.89
2019-03-16T00:53:22.361Z,90.42
2019-03-16T00:54:22.336Z,90.61
2019-03-16T00:55:22.309Z,90.42
2019-03-16T00:56:22.289Z,90.33
2019-03-16T00:57:22.267Z,90.23
2019-03-16T00:58:22.242Z,90.33
2019-03-16T00:59:22.267Z,90.42
2019-03-16T01:00:22.261Z,90.33
2019-03-16T01:01:22.161Z,90.23
2019-03-16T01:02:27.331Z,90.14
2019-03-16T01:03:22.117Z,90.33
2019-03-16T01:04:22.092Z,90.33
2019-03-16T01:05:22.063Z,90.14
2019-03-16T01:06:22.047Z,89.94
2019-03-16T01:07:22.015Z,89.56
2019-03-16T01:08:22.021Z,89.85
2019-03-16T01:09:22.009Z,89.85
2019-03-16T01:10:22.027Z,90.42
2019-03-16T01:11:21.918Z,90.04
2019-03-16T01:12:21.895Z,90.23
2019-03-16T01:13:21.865Z,90.23
2019-03-16T01:14:21.844Z,89.85
2019-03-16T01:15:21.819Z,90.04
2019-03-16T01:16:21.796Z,90.23
2019-03-16T01:17:21.768Z,89.75
2019-03-16T01:18:21.742Z,89.66
2019-03-16T01:19:21.717Z,90.42
2019-03-16T01:20:21.695Z,89.85
2019-03-16T01:21:21.669Z,90.52
2019-03-16T01:22:21.646Z,90.52
2019-03-16T01:23:21.620Z,90.42
2019-03-16T01:24:21.600Z,90.33
2019-03-16T01:25:21.570Z,89.85
2019-03-16T01:26:21.545Z,89.85
2019-03-16T01:27:21.532Z,90.33
2019-03-16T01:28:21.497Z,90.14
2019-03-16T01:29:21.471Z,90.14
2019-03-16T01:30:21.453Z,90.52
2019-03-16T01:31:21.471Z,90.52
2019-03-16T01:32:21.454Z,90.14
2019-03-16T01:33:21.562Z,90.80
2019-03-16T01:34:21.351Z,90.52
2019-03-16T01:35:21.330Z,90.33
2019-03-16T01:36:21.334Z,90.23
2019-03-16T01:37:21.274Z,90.52
2019-03-16T01:38:21.270Z,90.61
2019-03-16T01:39:21.254Z,90.61
2019-03-16T01:40:21.231Z,90.42
2019-03-16T01:41:21.303Z,90.23
2019-03-16T01:42:21.171Z,90.70
2019-03-16T01:43:21.168Z,91.47
2019-03-16T01:44:21.183Z,91.47
2019-03-16T01:45:21.182Z,90.80
2019-03-16T01:46:21.061Z,91.18
2019-03-16T01:47:21.039Z,90.52
2019-03-16T01:48:21.030Z,90.80
2019-03-16T01:49:20.982Z,90.89
2019-03-16T01:50:21.795Z,90.80
2019-03-16T01:51:20.958Z,91.47
2019-03-16T01:52:20.946Z,91.18
2019-03-16T01:53:20.881Z,91.28
2019-03-16T01:54:20.862Z,91.37
2019-03-16T01:55:20.833Z,91.37
2019-03-16T01:56:20.810Z,91.18
2019-03-16T01:57:20.783Z,91.47
2019-03-16T01:58:20.763Z,90.99
2019-03-16T01:59:20.739Z,92.03
2019-03-16T02:00:20.714Z,91.85
2019-03-16T02:01:20.793Z,91.75
2019-03-16T02:02:20.658Z,92.22
2019-03-16T02:03:22.266Z,91.75
2019-03-16T02:04:20.621Z,91.94
2019-03-16T02:05:20.587Z,91.75
2019-03-16T02:06:20.560Z,92.32
2019-03-16T02:07:20.538Z,91.94
2019-03-16T02:08:20.512Z,92.22
2019-03-16T02:09:20.488Z,92.32
2019-03-16T02:10:20.464Z,92.32
2019-03-16T02:11:20.444Z,92.13
2019-03-16T02:12:20.413Z,92.22
2019-03-16T02:13:20.388Z,92.70
2019-03-16T02:14:20.370Z,92.41
2019-03-16T02:15:20.376Z,92.37
2019-03-16T02:16:20.314Z,92.70
2019-03-16T02:17:20.301Z,92.85
2019-03-16T02:18:20.266Z,92.51
2019-03-16T02:19:20.263Z,92.70
2019-03-16T02:20:20.216Z,92.41
2019-03-16T02:21:20.192Z,92.51
2019-03-16T02:22:20.181Z,92.70
2019-03-16T02:23:20.231Z,92.46
2019-03-16T02:24:20.162Z,92.99
2019-03-16T02:25:20.134Z,92.51
2019-03-16T02:26:20.114Z,92.51
2019-03-16T02:27:20.060Z,92.41
2019-03-16T02:28:20.087Z,92.51
2019-03-16T02:29:20.042Z,93.13
2019-03-16T02:30:19.981Z,93.08
2019-03-16T02:31:19.966Z,93.08
2019-03-16T02:32:19.931Z,92.51
2019-03-16T02:33:19.923Z,93.18
2019-03-16T02:34:19.898Z,92.61
2019-03-16T02:35:19.903Z,92.46
2019-03-16T02:36:19.868Z,92.41
2019-03-16T02:37:19.880Z,92.61
2019-03-16T02:38:19.780Z,93.08
2019-03-16T02:39:19.819Z,92.51
2019-03-16T02:40:19.829Z,92.61
2019-03-16T02:41:19.714Z,92.37
2019-03-16T02:42:19.718Z,92.99
2019-03-16T02:43:19.712Z,92.61
2019-03-16T02:44:19.680Z,92.46
2019-03-16T02:45:19.642Z,92.70
2019-03-16T02:46:19.665Z,92.61
2019-03-16T02:47:19.599Z,92.61
2019-03-16T02:48:19.555Z,92.56
2019-03-16T02:49:19.498Z,92.61
2019-03-16T02:50:19.545Z,92.51
2019-03-16T02:51:19.451Z,92.75
2019-03-16T02:52:19.435Z,92.80
2019-03-16T02:53:19.481Z,92.99
2019-03-16T02:54:19.388Z,92.80
2019-03-16T02:55:19.366Z,92.89
2019-03-16T02:56:19.323Z,93.08
2019-03-16T02:57:19.416Z,93.08
2019-03-16T02:58:19.274Z,93.08
2019-03-16T02:59:19.251Z,93.08
2019-03-16T03:00:19.255Z,93.55
2019-03-16T03:01:19.204Z,93.04
2019-03-16T03:02:19.174Z,93.27
2019-03-16T03:03:29.124Z,93.46
2019-03-16T03:04:19.127Z,93.08
2019-03-16T03:05:19.101Z,93.08
2019-03-16T03:06:19.142Z,93.08
2019-03-16T03:07:19.056Z,93.37
2019-03-16T03:08:19.034Z,93.55
2019-03-16T03:09:19.010Z,93.75
2019-03-16T03:10:18.977Z,93.27
2019-03-16T03:11:18.956Z,93.55
2019-03-16T03:12:18.930Z,93.75
2019-03-16T03:13:18.912Z,93.65
2019-03-16T03:14:18.903Z,93.46
2019-03-16T03:15:18.862Z,93.84
2019-03-16T03:16:18.836Z,93.46
2019-03-16T03:17:18.806Z,93.65
2019-03-16T03:18:18.785Z,93.55
2019-03-16T03:19:18.771Z,93.55
2019-03-16T03:20:18.825Z,93.46
2019-03-16T03:21:18.706Z,93.37
2019-03-16T03:22:18.708Z,93.65
2019-03-16T03:23:18.675Z,93.51
2019-03-16T03:24:18.634Z,93.27
2019-03-16T03:25:18.625Z,93.27
2019-03-16T03:26:18.586Z,93.75
2019-03-16T03:27:18.562Z,93.27
2019-03-16T03:28:18.534Z,94.03
2019-03-16T03:29:18.518Z,93.79
2019-03-16T03:30:18.482Z,93.65
2019-03-16T03:31:18.462Z,93.65
2019-03-16T03:32:18.636Z,93.94
2019-03-16T03:33:18.421Z,93.70
2019-03-16T03:34:18.385Z,93.84
2019-03-16T03:35:18.384Z,94.03
2019-03-16T03:36:18.384Z,94.03
2019-03-16T03:37:18.322Z,93.65
2019-03-16T03:38:18.287Z,94.13
2019-03-16T03:39:18.260Z,94.22
2019-03-16T03:40:18.245Z,94.22
2019-03-16T03:41:18.208Z,94.13
2019-03-16T03:42:18.212Z,94.51
2019-03-16T03:43:18.175Z,94.32
2019-03-16T03:44:18.144Z,94.27
2019-03-16T03:45:18.113Z,94.42
2019-03-16T03:46:18.086Z,94.22
2019-03-16T03:47:18.263Z,94.22
2019-03-16T03:48:18.040Z,94.22
2019-03-16T03:49:18.018Z,94.32
2019-03-16T03:50:18.030Z,94.60
2019-03-16T03:51:17.971Z,94.42
2019-03-16T03:52:17.940Z,94.51
2019-03-16T03:53:17.943Z,94.70
2019-03-16T03:54:19.009Z,94.89
2019-03-16T03:55:17.866Z,94.79
2019-03-16T03:56:17.847Z,94.79
2019-03-16T03:57:17.818Z,94.70
2019-03-16T03:58:17.800Z,94.13
2019-03-16T03:59:17.767Z,95.08
2019-03-16T04:00:17.748Z,94.70
2019-03-16T04:01:17.717Z,95.17
2019-03-16T04:02:17.693Z,95.08
2019-03-16T04:03:17.668Z,94.79
2019-03-16T04:04:17.642Z,94.60
2019-03-16T04:05:17.623Z,95.08
2019-03-16T04:06:17.592Z,95.32
2019-03-16T04:07:20.119Z,94.98
2019-03-16T04:08:17.544Z,95.36
2019-03-16T04:09:17.520Z,94.98
2019-03-16T04:10:17.500Z,95.36
2019-03-16T04:11:17.469Z,95.46
2019-03-16T04:12:17.444Z,94.89
2019-03-16T04:13:18.434Z,95.36
2019-03-16T04:14:17.400Z,95.46
2019-03-16T04:15:17.380Z,94.89
2019-03-16T04:16:17.343Z,94.51
2019-03-16T04:17:17.369Z,95.17
2019-03-16T04:18:17.321Z,94.56
2019-03-16T04:19:17.272Z,94.60
2019-03-16T04:20:17.247Z,94.22
2019-03-16T04:21:17.230Z,94.42
2019-03-16T04:22:17.195Z,94.98
2019-03-16T04:23:17.217Z,94.03
2019-03-16T04:24:17.197Z,93.46
2019-03-16T04:25:17.122Z,93.46
2019-03-16T04:26:17.094Z,93.94
2019-03-16T04:27:17.119Z,94.03
2019-03-16T04:28:17.052Z,93.75
2019-03-16T04:29:17.134Z,94.03
2019-03-16T04:30:17.064Z,93.94
2019-03-16T04:31:17.008Z,94.03
2019-03-16T04:32:17.121Z,94.32
2019-03-16T04:33:16.961Z,94.89
2019-03-16T04:34:28.534Z,93.84
2019-03-16T04:35:16.959Z,92.99
2019-03-16T04:36:16.862Z,93.18
2019-03-16T04:37:16.826Z,92.70
2019-03-16T04:38:16.806Z,92.70
2019-03-16T04:39:16.818Z,93.08
2019-03-16T04:40:16.780Z,92.56
2019-03-16T04:41:16.726Z,92.80
2019-03-16T04:42:16.701Z,92.70
2019-03-16T04:43:16.676Z,92.89
2019-03-16T04:44:16.656Z,92.99
2019-03-16T04:45:16.625Z,93.18
2019-03-16T04:46:16.599Z,93.27
2019-03-16T04:47:16.574Z,93.08
2019-03-16T04:48:16.861Z,93.23
2019-03-16T04:49:16.525Z,92.56
2019-03-16T04:50:16.502Z,92.22
2019-03-16T04:51:16.475Z,92.94
2019-03-16T04:52:16.452Z,92.94
2019-03-16T04:53:16.426Z,92.66
2019-03-16T04:54:16.401Z,92.70
2019-03-16T04:55:16.379Z,92.94
2019-03-16T04:56:16.354Z,92.66
2019-03-16T04:57:16.325Z,93.04
2019-03-16T04:58:16.308Z,92.85
2019-03-16T04:59:16.288Z,93.13
2019-03-16T05:00:19.243Z,93.70
2019-03-16T05:01:16.235Z,93.04
2019-03-16T05:02:16.229Z,92.75
2019-03-16T05:03:16.188Z,93.04
2019-03-16T05:04:16.162Z,93.51
2019-03-16T05:05:16.133Z,93.41
2019-03-16T05:06:16.133Z,93.51
2019-03-16T05:07:16.080Z,93.41
2019-03-16T05:08:16.060Z,93.79
2019-03-16T05:09:16.031Z,93.60
2019-03-16T05:10:16.007Z,93.13
2019-03-16T05:11:15.982Z,92.37
2019-03-16T05:12:15.957Z,91.61
2019-03-16T05:13:15.937Z,91.89
2019-03-16T05:14:15.913Z,91.61
2019-03-16T05:15:15.892Z,92.08
2019-03-16T05:16:15.864Z,91.99
2019-03-16T05:17:15.833Z,91.52
2019-03-16T05:18:15.893Z,91.89
2019-03-16T05:19:15.793Z,91.42
2019-03-16T05:20:15.775Z,91.99
2019-03-16T05:21:15.745Z,92.18
2019-03-16T05:22:15.720Z,91.89
2019-03-16T05:23:15.700Z,91.80
2019-03-16T05:24:15.660Z,91.89
2019-03-16T05:25:15.635Z,91.52
2019-03-16T05:26:15.651Z,91.71
2019-03-16T05:27:15.634Z,91.89
2019-03-16T05:28:15.573Z,91.89
2019-03-16T05:29:15.547Z,92.66
2019-03-16T05:30:15.512Z,92.18
2019-03-16T05:31:15.491Z,91.89
2019-03-16T05:32:15.491Z,91.99
2019-03-16T05:33:15.437Z,92.56
2019-03-16T05:34:15.415Z,91.99
2019-03-16T05:35:15.388Z,92.08
2019-03-16T05:36:15.365Z,92.18
2019-03-16T05:37:15.344Z,91.80
2019-03-16T05:38:15.314Z,91.89
2019-03-16T05:39:15.296Z,92.27
2019-03-16T05:40:15.270Z,92.18
2019-03-16T05:41:15.257Z,92.27
2019-03-16T05:42:15.230Z,92.94
2019-03-16T05:43:15.197Z,92.46
2019-03-16T05:44:15.169Z,92.08
2019-03-16T05:45:15.144Z,92.85
2019-03-16T05:46:15.149Z,91.89
2019-03-16T05:47:15.094Z,92.66
2019-03-16T05:48:15.068Z,93.04
2019-03-16T05:49:15.054Z,92.66
2019-03-16T05:50:15.024Z,92.75
2019-03-16T05:51:14.996Z,92.85
2019-03-16T05:52:14.977Z,92.85
2019-03-16T05:53:14.945Z,93.51
2019-03-16T05:54:14.924Z,93.23
2019-03-16T05:55:14.902Z,93.13
2019-03-16T05:56:14.870Z,93.51
2019-03-16T05:57:14.846Z,93.23
2019-03-16T05:58:14.823Z,93.41
2019-03-16T05:59:14.802Z,93.41
2019-03-16T06:00:14.781Z,93.89
2019-03-16T06:01:14.748Z,93.70
2019-03-16T06:02:14.729Z,93.99
2019-03-16T06:03:14.706Z,94.27
2019-03-16T06:04:14.688Z,93.99
2019-03-16T06:05:14.662Z,94.37
2019-03-16T06:06:14.627Z,95.32
2019-03-16T06:07:14.612Z,95.22
2019-03-16T06:08:14.627Z,95.41
2019-03-16T06:09:14.552Z,94.93
2019-03-16T06:10:14.549Z,95.51
2019-03-16T06:11:14.505Z,95.70
2019-03-16T06:12:14.502Z,95.51
2019-03-16T06:13:14.457Z,95.41
2019-03-16T06:14:14.434Z,95.70
2019-03-16T06:15:14.423Z,95.89
2019-03-16T06:16:14.384Z,96.08
2019-03-16T06:17:14.359Z,96.45
2019-03-16T06:18:14.338Z,96.17
2019-03-16T06:19:14.315Z,95.98
2019-03-16T06:20:14.294Z,96.08
2019-03-16T06:21:14.285Z,96.36
2019-03-16T06:22:14.234Z,96.55
2019-03-16T06:23:14.211Z,97.03
2019-03-16T06:24:14.189Z,97.03
2019-03-16T06:25:14.194Z,97.03
2019-03-16T06:26:14.142Z,96.65
2019-03-16T06:27:14.152Z,96.93
2019-03-16T06:28:14.139Z,97.03
2019-03-16T06:29:14.090Z,96.74
2019-03-16T06:30:14.042Z,96.93
2019-03-16T06:31:14.018Z,97.12
2019-03-16T06:32:14.021Z,97.03
2019-03-16T06:33:13.971Z,97.22
2019-03-16T06:34:13.949Z,97.41
2019-03-16T06:35:24.024Z,97.50
2019-03-16T06:36:13.895Z,97.12
2019-03-16T06:37:13.868Z,97.50
2019-03-16T06:38:13.852Z,97.31
2019-03-16T06:39:13.823Z,97.31
2019-03-16T06:40:14.783Z,97.60
2019-03-16T06:41:13.779Z,97.69
2019-03-16T06:42:13.755Z,97.27
2019-03-16T06:43:13.730Z,98.07
2019-03-16T06:44:13.703Z,97.45
2019-03-16T06:45:13.683Z,98.17
2019-03-16T06:46:13.660Z,97.78
2019-03-16T06:47:13.630Z,97.78
2019-03-16T06:48:13.609Z,97.50
2019-03-16T06:49:13.617Z,97.45
2019-03-16T06:50:13.596Z,97.55
2019-03-16T06:51:13.530Z,97.64
2019-03-16T06:52:13.544Z,97.64
2019-03-16T06:53:13.483Z,98.31
2019-03-16T06:54:13.473Z,98.21
2019-03-16T06:55:13.460Z,98.12
2019-03-16T06:56:13.423Z,98.12
2019-03-16T06:57:13.389Z,98.12
2019-03-16T06:58:13.390Z,98.50
2019-03-16T06:59:13.332Z,98.12
2019-03-16T07:00:13.312Z,98.21
2019-03-16T07:01:13.317Z,98.12
2019-03-16T07:02:13.276Z,97.92
2019-03-16T07:03:13.296Z,97.92
2019-03-16T07:04:13.231Z,98.88
2019-03-16T07:05:13.251Z,98.12
2019-03-16T07:06:13.170Z,98.79
2019-03-16T07:07:13.146Z,98.79
2019-03-16T07:08:13.138Z,98.88
2019-03-16T07:09:13.107Z,98.79
2019-03-16T07:10:13.178Z,99.07
2019-03-16T07:11:13.043Z,98.59
2019-03-16T07:12:13.020Z,98.97
2019-03-16T07:13:13.027Z,98.50
2019-03-16T07:14:12.987Z,99.26
2019-03-16T07:15:13.050Z,99.26
2019-03-16T07:16:12.936Z,99.16
2019-03-16T07:17:13.763Z,99.16
2019-03-16T07:18:12.893Z,98.97
2019-03-16T07:19:12.841Z,98.97
2019-03-16T07:20:12.817Z,98.97
2019-03-16T07:21:12.784Z,99.21
2019-03-16T07:22:12.760Z,99.35
2019-03-16T07:23:12.757Z,99.26
2019-03-16T07:24:12.716Z,98.88
2019-03-16T07:25:12.696Z,98.88
2019-03-16T07:26:15.137Z,99.11
2019-03-16T07:27:25.405Z,99.50
2019-03-16T07:28:12.630Z,99.78
2019-03-16T07:29:12.600Z,99.50
2019-03-16T07:30:12.685Z,99.59
2019-03-16T07:31:12.571Z,99.02
2019-03-16T07:32:12.574Z,99.50
2019-03-16T07:33:12.498Z,99.69
2019-03-16T07:34:12.505Z,99.99
2019-03-16T07:35:12.452Z,99.40
2019-03-16T07:36:12.423Z,99.21
2019-03-16T07:37:12.410Z,99.21
2019-03-16T07:38:12.385Z,99.59
2019-03-16T07:39:12.354Z,99.30
2019-03-16T07:40:12.321Z,99.99
2019-03-16T07:41:12.329Z,99.97
2019-03-16T07:42:12.441Z,99.50
2019-03-16T07:43:12.244Z,99.78
2019-03-16T07:44:12.220Z,99.99
2019-03-16T07:45:12.200Z,99.69
2019-03-16T07:46:12.184Z,99.99
2019-03-16T07:47:12.164Z,99.59
2019-03-16T07:48:12.141Z,99.59
2019-03-16T07:49:12.134Z,99.99
2019-03-16T07:50:12.107Z,99.99
2019-03-16T07:51:12.115Z,99.99
2019-03-16T07:52:12.029Z,99.99
2019-03-16T07:53:12.011Z,99.99
2019-03-16T07:54:12.151Z,99.99
2019-03-16T07:55:11.953Z,99.99
2019-03-16T07:56:11.936Z,99.99
2019-03-16T07:57:12.595Z,99.99
2019-03-16T07:58:11.879Z,99.99
2019-03-16T07:59:11.850Z,99.99
2019-03-16T08:00:11.828Z,99.99
2019-03-16T08:01:13.677Z,99.99
2019-03-16T08:02:11.797Z,99.99
2019-03-16T08:03:12.183Z,99.99
2019-03-16T08:04:11.730Z,99.99
2019-03-16T08:05:18.511Z,99.99
2019-03-16T08:06:11.711Z,99.99
2019-03-16T08:07:11.682Z,99.99
2019-03-16T08:08:11.652Z,99.99
2019-03-16T08:09:11.641Z,99.99
2019-03-16T08:10:11.592Z,99.99
2019-03-16T08:11:11.638Z,99.99
2019-03-16T08:12:11.528Z,99.99
2019-03-16T08:13:11.839Z,99.99
2019-03-16T08:14:11.584Z,99.99
2019-03-16T08:15:11.464Z,99.99
2019-03-16T08:16:11.429Z,99.99
2019-03-16T08:17:11.405Z,99.99
2019-03-16T08:18:11.382Z,99.99
2019-03-16T08:19:11.360Z,99.99
2019-03-16T08:20:11.337Z,99.99
2019-03-16T08:21:11.407Z,99.99
2019-03-16T08:22:11.307Z,99.99
2019-03-16T08:23:11.267Z,99.99
2019-03-16T08:24:11.226Z,99.99
2019-03-16T08:25:11.207Z,99.99
2019-03-16T08:26:11.206Z,99.99
2019-03-16T08:27:11.161Z,99.99
2019-03-16T08:28:11.131Z,99.99
2019-03-16T08:29:11.123Z,99.99
2019-03-16T08:30:11.079Z,99.99
2019-03-16T08:31:11.061Z,99.99
2019-03-16T08:32:11.045Z,99.99
2019-03-16T08:33:11.014Z,99.99
2019-03-16T08:34:10.987Z,99.99
2019-03-16T08:35:10.958Z,99.99
2019-03-16T08:36:12.810Z,99.99
2019-03-16T08:37:10.909Z,99.99
2019-03-16T08:38:10.882Z,99.99
2019-03-16T08:39:10.861Z,99.99
2019-03-16T08:40:10.832Z,99.99
2019-03-16T08:41:10.809Z,99.99
2019-03-16T08:42:12.260Z,99.99
2019-03-16T08:43:10.762Z,99.99
2019-03-16T08:44:10.733Z,99.99
2019-03-16T08:45:11.716Z,99.99
2019-03-16T08:46:10.845Z,99.99
2019-03-16T08:47:10.660Z,99.99
2019-03-16T08:48:22.154Z,99.99
2019-03-16T08:49:10.608Z,99.99
2019-03-16T08:50:10.585Z,99.99
2019-03-16T08:51:10.578Z,99.99
2019-03-16T08:52:10.602Z,99.99
2019-03-16T08:53:10.594Z,99.99
2019-03-16T08:54:10.536Z,99.99
2019-03-16T08:55:10.584Z,99.99
2019-03-16T08:56:10.443Z,99.99
2019-03-16T08:57:10.439Z,99.99
2019-03-16T08:58:10.386Z,99.99
2019-03-16T08:59:10.367Z,99.99
2019-03-16T09:00:10.337Z,99.99
2019-03-16T09:01:10.311Z,99.99
2019-03-16T09:02:10.286Z,99.99
2019-03-16T09:03:10.262Z,99.99
2019-03-16T09:04:10.235Z,99.99
2019-03-16T09:05:10.212Z,99.99
2019-03-16T09:06:10.183Z,99.99
2019-03-16T09:07:10.158Z,99.99
2019-03-16T09:08:10.137Z,99.99
2019-03-16T09:09:10.369Z,99.99
2019-03-16T09:10:10.150Z,99.99
2019-03-16T09:11:10.183Z,99.99
2019-03-16T09:12:10.086Z,99.99
2019-03-16T09:13:10.123Z,99.99
2019-03-16T09:14:09.993Z,99.99
2019-03-16T09:15:09.962Z,99.99
2019-03-16T09:16:09.943Z,99.99
2019-03-16T09:17:09.910Z,99.99
2019-03-16T09:18:09.886Z,99.99
2019-03-16T09:19:09.861Z,99.99
2019-03-16T09:20:09.837Z,99.99
2019-03-16T09:21:09.812Z,99.99
2019-03-16T09:22:09.790Z,99.99
2019-03-16T09:23:09.761Z,99.99
2019-03-16T09:24:09.748Z,99.99
2019-03-16T09:25:10.800Z,99.99
2019-03-16T09:26:09.695Z,99.99
2019-03-16T09:27:09.677Z,99.99
2019-03-16T09:28:18.615Z,99.99
2019-03-16T09:29:14.944Z,99.99
2019-03-16T09:30:09.750Z,99.99
2019-03-16T09:31:09.575Z,99.99
2019-03-16T09:32:09.587Z,99.99
2019-03-16T09:33:09.605Z,99.99
2019-03-16T09:34:09.526Z,99.99
2019-03-16T09:35:09.523Z,99.99
2019-03-16T09:36:09.527Z,99.99
2019-03-16T09:37:09.566Z,99.99
2019-03-16T09:38:09.418Z,99.99
2019-03-16T09:39:09.449Z,99.99
2019-03-16T09:40:09.353Z,99.99
2019-03-16T09:41:09.315Z,99.99
2019-03-16T09:42:09.291Z,99.99
2019-03-16T09:43:09.273Z,99.99
2019-03-16T09:44:09.317Z,99.99
2019-03-16T09:45:09.224Z,99.99
2019-03-16T09:46:09.266Z,99.99
2019-03-16T09:47:09.251Z,99.99
2019-03-16T09:48:10.873Z,99.99
2019-03-16T09:49:09.267Z,99.99
2019-03-16T09:50:09.108Z,99.99
2019-03-16T09:51:09.072Z,99.99
2019-03-16T09:52:09.050Z,99.99
2019-03-16T09:53:09.030Z,99.99
2019-03-16T09:54:09.003Z,99.99
2019-03-16T09:55:08.988Z,99.99
2019-03-16T09:56:08.960Z,99.99
2019-03-16T09:57:08.954Z,99.99
2019-03-16T09:58:08.920Z,99.99
2019-03-16T09:59:08.934Z,99.99
2019-03-16T10:00:08.859Z,99.99
2019-03-16T10:01:08.833Z,99.99
2019-03-16T10:02:08.868Z,99.99
2019-03-16T10:03:08.807Z,99.99
2019-03-16T10:04:08.898Z,99.99
2019-03-16T10:05:08.740Z,99.99
2019-03-16T10:06:08.713Z,99.99
2019-03-16T10:07:08.691Z,99.99
2019-03-16T10:08:08.687Z,99.99
2019-03-16T10:09:08.814Z,99.99
2019-03-16T10:10:08.621Z,99.99
2019-03-16T10:11:08.791Z,99.99
2019-03-16T10:12:08.619Z,99.99
2019-03-16T10:13:08.630Z,99.99
2019-03-16T10:14:09.379Z,99.99
2019-03-16T10:15:08.585Z,99.99
2019-03-16T10:16:08.499Z,99.99
2019-03-16T10:17:08.544Z,99.99
2019-03-16T10:18:08.507Z,99.99
2019-03-16T10:19:08.435Z,99.99
2019-03-16T10:20:08.511Z,99.99
2019-03-16T10:21:08.514Z,99.99
2019-03-16T10:22:08.474Z,99.99
2019-03-16T10:23:08.352Z,99.99
2019-03-16T10:24:08.367Z,99.99
2019-03-16T10:25:08.327Z,99.99
2019-03-16T10:26:10.836Z,99.99
2019-03-16T10:27:08.207Z,99.99
2019-03-16T10:28:08.183Z,99.99
2019-03-16T10:29:08.165Z,99.99
2019-03-16T10:30:08.257Z,99.99
2019-03-16T10:31:10.942Z,99.99
2019-03-16T10:32:08.086Z,99.99
2019-03-16T10:33:11.011Z,99.99
2019-03-16T10:34:08.035Z,99.99
2019-03-16T10:35:08.070Z,99.99
2019-03-16T10:36:08.002Z,99.99
2019-03-16T10:37:07.969Z,99.99
2019-03-16T10:38:07.941Z,99.99
2019-03-16T10:39:07.920Z,99.99
2019-03-16T10:40:07.914Z,99.99
2019-03-16T10:41:07.962Z,99.99
2019-03-16T10:42:07.895Z,99.99
2019-03-16T10:43:08.137Z,99.99
2019-03-16T10:44:07.868Z,99.99
2019-03-16T10:45:07.776Z,99.99
2019-03-16T10:46:08.568Z,99.99
2019-03-16T10:47:07.724Z,99.99
2019-03-16T10:48:07.755Z,99.99
2019-03-16T10:49:07.701Z,99.99
2019-03-16T10:50:07.660Z,99.99
2019-03-16T10:51:07.636Z,99.99
2019-03-16T10:52:07.624Z,99.99
2019-03-16T10:53:07.592Z,99.99
2019-03-16T10:54:08.562Z,99.99
2019-03-16T10:55:07.714Z,99.99
2019-03-16T10:56:07.664Z,99.99
2019-03-16T10:57:07.485Z,99.99
2019-03-16T10:58:09.383Z,99.99
2019-03-16T10:59:07.444Z,99.99
2019-03-16T11:00:07.415Z,99.99
2019-03-16T11:01:07.392Z,99.99
2019-03-16T11:02:07.382Z,99.99
2019-03-16T11:03:07.342Z,99.99
2019-03-16T11:04:07.317Z,99.99
2019-03-16T11:05:07.295Z,99.99
2019-03-16T11:06:07.267Z,99.99
2019-03-16T11:07:07.263Z,99.99
2019-03-16T11:08:07.223Z,99.99
2019-03-16T11:09:07.190Z,99.99
2019-03-16T11:10:08.025Z,99.99
2019-03-16T11:11:07.150Z,99.99
2019-03-16T11:12:07.158Z,99.99
2019-03-16T11:13:07.123Z,99.99
2019-03-16T11:14:07.073Z,99.99
2019-03-16T11:15:07.054Z,99.99
2019-03-16T11:16:07.024Z,99.99
2019-03-16T11:17:06.999Z,99.99
2019-03-16T11:18:06.981Z,99.99
2019-03-16T11:19:06.975Z,99.99
2019-03-16T11:20:06.939Z,99.75
2019-03-16T11:21:06.904Z,99.65
2019-03-16T11:22:06.889Z,99.46
2019-03-16T11:23:06.859Z,99.65
2019-03-16T11:24:06.833Z,99.65
2019-03-16T11:25:06.810Z,99.65
2019-03-16T11:26:06.922Z,99.99
2019-03-16T11:27:06.758Z,99.37
2019-03-16T11:28:06.735Z,99.55
2019-03-16T11:29:09.222Z,99.37
2019-03-16T11:30:06.696Z,99.94
2019-03-16T11:31:06.667Z,99.94
2019-03-16T11:32:06.648Z,99.99
2019-03-16T11:33:06.731Z,99.55
2019-03-16T11:34:06.597Z,99.18
2019-03-16T11:35:06.573Z,99.75
2019-03-16T11:36:06.547Z,99.46
2019-03-16T11:37:06.523Z,99.46
2019-03-16T11:38:06.497Z,99.99
2019-03-16T11:39:07.023Z,99.65
2019-03-16T11:40:06.448Z,99.55
2019-03-16T11:41:06.427Z,99.75
2019-03-16T11:42:06.415Z,99.75
2019-03-16T11:43:06.416Z,99.65
2019-03-16T11:44:06.397Z,99.46
2019-03-16T11:45:06.346Z,99.55
2019-03-16T11:46:06.307Z,99.37
2019-03-16T11:47:06.306Z,98.99
2019-03-16T11:48:06.267Z,99.46
2019-03-16T11:49:06.244Z,99.37
2019-03-16T11:50:06.218Z,98.79
2019-03-16T11:51:06.199Z,98.94
2019-03-16T11:52:06.168Z,99.04
2019-03-16T11:53:06.142Z,98.85
2019-03-16T11:54:06.122Z,98.13
2019-03-16T11:55:06.094Z,98.22
2019-03-16T11:56:17.339Z,98.60
2019-03-16T11:57:06.072Z,98.22
2019-03-16T11:58:06.177Z,99.27
2019-03-16T11:59:06.001Z,98.22
2019-03-16T12:00:05.986Z,98.36
2019-03-16T12:01:05.953Z,98.65
2019-03-16T12:02:06.038Z,98.22
2019-03-16T12:03:05.989Z,98.56
2019-03-16T12:04:05.881Z,97.70
2019-03-16T12:05:05.856Z,97.99
2019-03-16T12:06:05.838Z,98.27
2019-03-16T12:07:05.814Z,98.08
2019-03-16T12:08:05.786Z,97.99
2019-03-16T12:09:05.761Z,98.08
2019-03-16T12:10:05.736Z,98.08
2019-03-16T12:11:05.723Z,98.08
2019-03-16T12:12:05.696Z,98.08
2019-03-16T12:13:16.788Z,97.41
2019-03-16T12:14:05.653Z,98.27
2019-03-16T12:15:05.620Z,97.80
2019-03-16T12:16:05.673Z,97.22
2019-03-16T12:17:05.576Z,97.51
2019-03-16T12:18:07.374Z,97.51
2019-03-16T12:19:05.601Z,97.32
2019-03-16T12:20:05.572Z,96.94
2019-03-16T12:21:05.484Z,96.94
2019-03-16T12:22:05.459Z,97.32
2019-03-16T12:23:05.466Z,97.51
2019-03-16T12:24:05.411Z,96.56
2019-03-16T12:25:05.386Z,96.65
2019-03-16T12:26:05.374Z,96.94
2019-03-16T12:27:05.345Z,96.08
2019-03-16T12:28:05.326Z,96.36
2019-03-16T12:29:05.296Z,96.17
2019-03-16T12:30:05.267Z,96.84
2019-03-16T12:31:05.256Z,96.27
2019-03-16T12:32:05.304Z,96.17
2019-03-16T12:33:05.196Z,95.70
2019-03-16T12:34:05.178Z,96.08
2019-03-16T12:35:05.150Z,96.84
2019-03-16T12:36:05.133Z,96.17
2019-03-16T12:37:05.103Z,95.89
2019-03-16T12:38:05.082Z,95.61
2019-03-16T12:39:05.065Z,95.61
2019-03-16T12:40:05.038Z,95.79
2019-03-16T12:41:05.013Z,95.79
2019-03-16T12:42:04.991Z,95.89
2019-03-16T12:43:04.962Z,95.98
2019-03-16T12:44:04.943Z,95.70
2019-03-16T12:45:04.917Z,95.98
2019-03-16T12:46:04.890Z,96.08
2019-03-16T12:47:04.871Z,95.22
2019-03-16T12:48:07.372Z,95.89
2019-03-16T12:49:04.820Z,95.70
2019-03-16T12:50:04.799Z,95.41
2019-03-16T12:51:04.773Z,95.12
2019-03-16T12:52:04.752Z,95.22